createdAt,value
2017-05-20T00:00:36.309Z,0
2017-05-20T00:01:37.669Z,0
2017-05-20T00:02:39.041Z,0
2017-05-20T00:03:40.399Z,0
2017-05-20T00:04:41.768Z,0
2017-05-20T00:05:43.142Z,0
2017-05-20T00:06:44.506Z,0
2017-05-20T00:07:45.864Z,0
2017-05-20T00:08:47.228Z,0
2017-05-20T00:09:48.586Z,0
2017-05-20T00:10:49.953Z,0
2017-05-20T00:11:51.314Z,0
2017-05-20T00:12:52.684Z,0
2017-05-20T00:13:54.070Z,0
2017-05-20T00:14:55.432Z,0
2017-05-20T00:15:56.797Z,0
2017-05-20T00:16:58.159Z,0
2017-05-20T00:17:59.550Z,0
2017-05-20T00:19:00.906Z,0
2017-05-20T00:20:02.282Z,0
2017-05-20T00:21:03.644Z,0
2017-05-20T00:22:05.015Z,0
2017-05-20T00:23:06.383Z,0
2017-05-20T00:24:07.749Z,0
2017-05-20T00:25:09.160Z,0
2017-05-20T00:26:10.566Z,0
2017-05-20T00:27:11.923Z,0
2017-05-20T00:28:13.415Z,0
2017-05-20T00:29:14.779Z,0
2017-05-20T00:30:16.140Z,0
2017-05-20T00:31:17.505Z,0
2017-05-20T00:32:18.876Z,0
2017-05-20T00:33:20.264Z,0
2017-05-20T00:34:21.629Z,0
2017-05-20T00:35:22.997Z,0
2017-05-20T00:36:24.373Z,0
2017-05-20T00:37:25.792Z,0
2017-05-20T00:38:27.190Z,0
2017-05-20T00:39:28.562Z,0
2017-05-20T00:40:29.918Z,0
2017-05-20T00:41:31.279Z,0
2017-05-20T00:42:32.646Z,0
2017-05-20T00:43:34.050Z,0
2017-05-20T00:44:35.461Z,0
2017-05-20T00:45:36.871Z,0
2017-05-20T00:46:38.232Z,0
2017-05-20T00:47:39.634Z,0
2017-05-20T00:48:40.984Z,0
2017-05-20T00:49:42.376Z,0
2017-05-20T00:50:43.748Z,0
2017-05-20T00:51:45.152Z,0
2017-05-20T00:52:46.523Z,0
2017-05-20T00:53:47.878Z,0
2017-05-20T00:54:49.245Z,0
2017-05-20T00:55:50.614Z,0
2017-05-20T00:56:51.988Z,0
2017-05-20T00:57:53.354Z,0
2017-05-20T00:58:54.713Z,0
2017-05-20T00:59:56.075Z,0
2017-05-20T01:00:57.436Z,0
2017-05-20T01:01:58.798Z,0
2017-05-20T01:03:00.182Z,0
2017-05-20T01:04:01.553Z,0
2017-05-20T01:05:02.923Z,0
2017-05-20T01:06:04.285Z,0
2017-05-20T01:07:05.652Z,0
2017-05-20T01:08:07.011Z,0
2017-05-20T01:09:08.409Z,0
2017-05-20T01:10:09.776Z,0
2017-05-20T01:11:11.142Z,0
2017-05-20T01:12:12.509Z,0
2017-05-20T01:13:13.880Z,0
2017-05-20T01:14:15.243Z,0
2017-05-20T01:15:16.613Z,0
2017-05-20T01:16:17.984Z,0
2017-05-20T01:17:19.344Z,0
2017-05-20T01:18:20.711Z,0
2017-05-20T01:19:22.073Z,0
2017-05-20T01:20:23.463Z,0
2017-05-20T01:21:24.830Z,0
2017-05-20T01:22:26.221Z,0
2017-05-20T01:23:27.591Z,0
2017-05-20T01:24:28.976Z,0
2017-05-20T01:25:30.369Z,0
2017-05-20T01:26:31.753Z,0
2017-05-20T01:27:33.150Z,0
2017-05-20T01:28:34.533Z,0
2017-05-20T01:29:35.970Z,0
2017-05-20T01:30:37.387Z,0
2017-05-20T01:31:38.795Z,0
2017-05-20T01:32:40.163Z,0
2017-05-20T01:33:41.540Z,0
2017-05-20T01:34:42.887Z,0
2017-05-20T01:35:44.254Z,0
2017-05-20T01:36:45.634Z,0
2017-05-20T01:37:47.046Z,0
2017-05-20T01:38:48.424Z,0
2017-05-20T01:39:49.793Z,0
2017-05-20T01:40:51.161Z,0
2017-05-20T01:41:52.536Z,0
2017-05-20T01:42:53.917Z,0
2017-05-20T01:43:55.314Z,0
2017-05-20T01:44:56.696Z,0
2017-05-20T01:45:58.061Z,0
2017-05-20T01:46:59.442Z,0
2017-05-20T01:48:00.799Z,0
2017-05-20T01:49:02.173Z,0
2017-05-20T01:50:03.532Z,0
2017-05-20T01:51:04.915Z,0
2017-05-20T01:52:06.277Z,0
2017-05-20T01:53:07.644Z,0
2017-05-20T01:54:09.893Z,0
2017-05-20T01:55:11.273Z,0
2017-05-20T01:56:12.643Z,0
2017-05-20T01:57:14.011Z,0
2017-05-20T01:58:15.366Z,0
2017-05-20T01:59:16.736Z,0
2017-05-20T02:00:18.111Z,0
2017-05-20T02:01:19.516Z,0
2017-05-20T02:02:20.879Z,0
2017-05-20T02:03:22.236Z,0
2017-05-20T02:04:23.689Z,0
2017-05-20T02:05:25.065Z,0
2017-05-20T02:06:26.424Z,0
2017-05-20T02:07:27.785Z,0
2017-05-20T02:08:30.431Z,0
2017-05-20T02:09:31.218Z,0
2017-05-20T02:10:32.580Z,0
2017-05-20T02:11:33.966Z,0
2017-05-20T02:12:35.353Z,0
2017-05-20T02:13:37.361Z,0
2017-05-20T02:14:38.768Z,0
2017-05-20T02:15:40.122Z,0
2017-05-20T02:16:41.506Z,0
2017-05-20T02:17:42.897Z,0
2017-05-20T02:18:44.261Z,0
2017-05-20T02:19:45.657Z,0
2017-05-20T02:20:47.027Z,0
2017-05-20T02:21:48.405Z,0
2017-05-20T02:22:49.798Z,0
2017-05-20T02:23:51.216Z,0
2017-05-20T02:24:52.581Z,0
2017-05-20T02:25:53.946Z,0
2017-05-20T02:26:55.313Z,0
2017-05-20T02:27:56.746Z,0
2017-05-20T02:28:58.107Z,0
2017-05-20T02:29:59.521Z,0
2017-05-20T02:31:00.890Z,0
2017-05-20T02:32:02.261Z,0
2017-05-20T02:33:03.624Z,0
2017-05-20T02:34:04.986Z,0
2017-05-20T02:35:06.415Z,0
2017-05-20T02:36:07.775Z,0
2017-05-20T02:37:09.178Z,0
2017-05-20T02:38:10.526Z,0
2017-05-20T02:39:11.887Z,0
2017-05-20T02:40:13.309Z,0
2017-05-20T02:41:14.679Z,0
2017-05-20T02:42:16.042Z,0
2017-05-20T02:43:17.411Z,0
2017-05-20T02:44:18.804Z,0
2017-05-20T02:45:20.186Z,0
2017-05-20T02:46:21.544Z,0
2017-05-20T02:47:22.958Z,0
2017-05-20T02:48:24.315Z,0
2017-05-20T02:49:25.705Z,0
2017-05-20T02:50:27.078Z,0
2017-05-20T02:51:28.576Z,0
2017-05-20T02:52:29.941Z,0
2017-05-20T02:53:31.346Z,0
2017-05-20T02:54:32.702Z,0
2017-05-20T02:55:34.080Z,0
2017-05-20T02:56:35.512Z,0
2017-05-20T02:57:36.881Z,0
2017-05-20T02:58:38.245Z,0
2017-05-20T02:59:39.607Z,0
2017-05-20T03:00:40.969Z,0
2017-05-20T03:01:42.340Z,0
2017-05-20T03:02:44.395Z,0
2017-05-20T03:03:45.753Z,0
2017-05-20T03:04:47.239Z,0
2017-05-20T03:05:48.602Z,0
2017-05-20T03:06:49.976Z,0
2017-05-20T03:07:51.369Z,0
2017-05-20T03:08:52.755Z,0
2017-05-20T03:09:54.120Z,0
2017-05-20T03:10:55.473Z,0
2017-05-20T03:11:56.846Z,0
2017-05-20T03:12:58.210Z,5
2017-05-20T03:13:59.573Z,5
2017-05-20T03:15:00.945Z,5
2017-05-20T03:16:02.314Z,5
2017-05-20T03:17:03.675Z,5
2017-05-20T03:18:05.041Z,5
2017-05-20T03:19:06.403Z,5
2017-05-20T03:20:07.812Z,5
2017-05-20T03:21:09.183Z,5
2017-05-20T03:22:10.551Z,5
2017-05-20T03:23:11.912Z,10
2017-05-20T03:24:13.283Z,10
2017-05-20T03:25:14.652Z,10
2017-05-20T03:26:16.031Z,10
2017-05-20T03:27:17.392Z,10
2017-05-20T03:28:18.766Z,10
2017-05-20T03:29:20.129Z,10
2017-05-20T03:30:21.494Z,10
2017-05-20T03:31:22.871Z,10
2017-05-20T03:32:24.274Z,10
2017-05-20T03:33:25.642Z,15
2017-05-20T03:34:27.662Z,15
2017-05-20T03:35:29.058Z,15
2017-05-20T03:36:30.427Z,15
2017-05-20T03:37:31.794Z,15
2017-05-20T03:38:33.261Z,15
2017-05-20T03:39:34.629Z,20
2017-05-20T03:40:36.005Z,20
2017-05-20T03:41:37.379Z,20
2017-05-20T03:42:38.751Z,20
2017-05-20T03:43:40.119Z,25
2017-05-20T03:44:41.487Z,25
2017-05-20T03:45:42.843Z,30
2017-05-20T03:46:44.217Z,30
2017-05-20T03:47:45.582Z,30
2017-05-20T03:48:46.953Z,35
2017-05-20T03:49:48.318Z,35
2017-05-20T03:50:49.685Z,40
2017-05-20T03:51:51.700Z,40
2017-05-20T03:52:53.072Z,40
2017-05-20T03:53:54.430Z,45
2017-05-20T03:54:56.401Z,45
2017-05-20T03:55:57.771Z,45
2017-05-20T03:56:59.145Z,50
2017-05-20T03:58:00.515Z,55
2017-05-20T03:59:01.893Z,60
2017-05-20T04:00:03.253Z,60
2017-05-20T04:01:04.614Z,65
2017-05-20T04:02:05.985Z,65
2017-05-20T04:03:07.357Z,70
2017-05-20T04:04:08.729Z,70
2017-05-20T04:05:10.097Z,75
2017-05-20T04:06:11.476Z,75
2017-05-20T04:07:12.851Z,80
2017-05-20T04:08:14.214Z,80
2017-05-20T04:09:15.578Z,85
2017-05-20T04:10:16.972Z,85
2017-05-20T04:11:18.345Z,90
2017-05-20T04:12:19.781Z,90
2017-05-20T04:13:21.088Z,90
2017-05-20T04:14:22.472Z,90
2017-05-20T04:15:23.839Z,95
2017-05-20T04:16:25.210Z,95
2017-05-20T04:17:26.629Z,95
2017-05-20T04:18:27.994Z,95
2017-05-20T04:19:29.366Z,95
2017-05-20T04:20:30.732Z,100
2017-05-20T04:21:32.100Z,100
2017-05-20T04:22:33.469Z,100
2017-05-20T04:23:34.839Z,100
2017-05-20T04:24:36.906Z,100
2017-05-20T04:25:38.365Z,105
2017-05-20T04:26:39.733Z,105
2017-05-20T04:27:41.163Z,110
2017-05-20T04:28:42.475Z,115
2017-05-20T04:29:43.840Z,120
2017-05-20T04:30:45.253Z,125
2017-05-20T04:31:46.670Z,125
2017-05-20T04:32:48.043Z,130
2017-05-20T04:33:49.401Z,130
2017-05-20T04:34:50.817Z,130
2017-05-20T04:35:52.201Z,130
2017-05-20T04:36:54.403Z,135
2017-05-20T04:37:56.401Z,140
2017-05-20T04:38:57.776Z,140
2017-05-20T04:39:59.149Z,145
2017-05-20T04:41:00.553Z,145
2017-05-20T04:42:01.915Z,140
2017-05-20T04:43:03.286Z,145
2017-05-20T04:44:04.698Z,145
2017-05-20T04:45:06.071Z,145
2017-05-20T04:46:07.461Z,145
2017-05-20T04:47:08.828Z,150
2017-05-20T04:48:10.200Z,145
2017-05-20T04:49:11.560Z,145
2017-05-20T04:50:12.932Z,145
2017-05-20T04:51:14.299Z,145
2017-05-20T04:52:15.707Z,150
2017-05-20T04:53:17.152Z,150
2017-05-20T04:54:18.553Z,155
2017-05-20T04:55:19.925Z,150
2017-05-20T04:56:21.294Z,145
2017-05-20T04:57:22.657Z,145
2017-05-20T04:58:24.029Z,140
2017-05-20T04:59:25.400Z,150
2017-05-20T05:00:26.811Z,140
2017-05-20T05:01:28.186Z,140
2017-05-20T05:02:29.549Z,145
2017-05-20T05:03:30.920Z,150
2017-05-20T05:04:33.056Z,150
2017-05-20T05:05:34.424Z,155
2017-05-20T05:06:35.790Z,165
2017-05-20T05:07:37.161Z,170
2017-05-20T05:08:38.529Z,180
2017-05-20T05:09:39.894Z,175
2017-05-20T05:10:41.265Z,175
2017-05-20T05:11:42.771Z,185
2017-05-20T05:12:44.149Z,190
2017-05-20T05:13:45.537Z,190
2017-05-20T05:14:46.914Z,190
2017-05-20T05:15:48.306Z,195
2017-05-20T05:16:49.674Z,200
2017-05-20T05:17:51.039Z,205
2017-05-20T05:18:52.405Z,215
2017-05-20T05:19:53.777Z,220
2017-05-20T05:20:55.173Z,225
2017-05-20T05:21:56.550Z,225
2017-05-20T05:22:57.909Z,225
2017-05-20T05:23:59.282Z,225
2017-05-20T05:25:00.659Z,215
2017-05-20T05:26:02.029Z,215
2017-05-20T05:27:03.416Z,220
2017-05-20T05:28:05.419Z,230
2017-05-20T05:29:06.801Z,205
2017-05-20T05:30:08.176Z,220
2017-05-20T05:31:09.585Z,200
2017-05-20T05:32:10.962Z,200
2017-05-20T05:33:12.330Z,200
2017-05-20T05:34:13.730Z,195
2017-05-20T05:35:15.101Z,190
2017-05-20T05:36:16.465Z,190
2017-05-20T05:37:17.842Z,200
2017-05-20T05:38:19.222Z,205
2017-05-20T05:39:20.585Z,210
2017-05-20T05:40:21.952Z,205
2017-05-20T05:41:23.341Z,215
2017-05-20T05:42:24.713Z,210
2017-05-20T05:43:26.110Z,210
2017-05-20T05:44:27.480Z,210
2017-05-20T05:45:28.855Z,205
2017-05-20T05:46:30.237Z,200
2017-05-20T05:47:31.672Z,210
2017-05-20T05:48:33.040Z,205
2017-05-20T05:49:34.410Z,210
2017-05-20T05:50:35.779Z,205
2017-05-20T05:51:37.159Z,205
2017-05-20T05:52:38.521Z,200
2017-05-20T05:53:39.909Z,195
2017-05-20T05:54:41.269Z,185
2017-05-20T05:55:42.645Z,175
2017-05-20T05:56:44.016Z,175
2017-05-20T05:57:45.445Z,175
2017-05-20T05:58:46.814Z,180
2017-05-20T05:59:48.205Z,170
2017-05-20T06:00:49.575Z,170
2017-05-20T06:01:50.945Z,175
2017-05-20T06:02:52.319Z,185
2017-05-20T06:03:53.687Z,180
2017-05-20T06:04:55.061Z,170
2017-05-20T06:05:56.477Z,170
2017-05-20T06:06:57.794Z,165
2017-05-20T06:07:59.165Z,165
2017-05-20T06:09:00.538Z,165
2017-05-20T06:10:01.928Z,170
2017-05-20T06:11:03.304Z,170
2017-05-20T06:12:04.664Z,175
2017-05-20T06:13:06.039Z,165
2017-05-20T06:14:07.402Z,160
2017-05-20T06:15:08.768Z,165
2017-05-20T06:16:10.158Z,160
2017-05-20T06:17:11.531Z,160
2017-05-20T06:18:12.905Z,150
2017-05-20T06:19:14.274Z,135
2017-05-20T06:20:15.648Z,130
2017-05-20T06:21:17.021Z,125
2017-05-20T06:22:18.396Z,125
2017-05-20T06:23:19.765Z,125
2017-05-20T06:24:21.130Z,130
2017-05-20T06:25:22.496Z,125
2017-05-20T06:26:23.872Z,130
2017-05-20T06:27:25.234Z,135
2017-05-20T06:28:26.614Z,135
2017-05-20T06:29:27.986Z,135
2017-05-20T06:30:29.352Z,130
2017-05-20T06:31:30.730Z,130
2017-05-20T06:32:32.096Z,130
2017-05-20T06:33:33.460Z,125
2017-05-20T06:34:34.843Z,125
2017-05-20T06:35:36.208Z,125
2017-05-20T06:36:37.605Z,130
2017-05-20T06:37:38.965Z,135
2017-05-20T06:38:40.355Z,135
2017-05-20T06:39:41.719Z,135
2017-05-20T06:40:43.105Z,135
2017-05-20T06:41:44.476Z,135
2017-05-20T06:42:45.876Z,145
2017-05-20T06:43:47.241Z,150
2017-05-20T06:44:48.603Z,165
2017-05-20T06:45:49.986Z,175
2017-05-20T06:46:51.410Z,175
2017-05-20T06:47:52.844Z,175
2017-05-20T06:48:54.294Z,180
2017-05-20T06:49:55.674Z,195
2017-05-20T06:50:57.044Z,215
2017-05-20T06:51:58.452Z,220
2017-05-20T06:52:59.826Z,205
2017-05-20T06:54:01.198Z,195
2017-05-20T06:55:02.606Z,190
2017-05-20T06:56:03.992Z,190
2017-05-20T06:57:05.359Z,185
2017-05-20T06:58:07.582Z,180
2017-05-20T06:59:08.947Z,175
2017-05-20T07:00:10.316Z,165
2017-05-20T07:01:11.684Z,160
2017-05-20T07:02:13.055Z,155
2017-05-20T07:03:14.425Z,145
2017-05-20T07:04:15.789Z,140
2017-05-20T07:05:17.181Z,140
2017-05-20T07:06:18.551Z,140
2017-05-20T07:07:19.918Z,145
2017-05-20T07:08:21.291Z,150
2017-05-20T07:09:22.658Z,155
2017-05-20T07:10:24.217Z,160
2017-05-20T07:11:25.596Z,155
2017-05-20T07:12:27.932Z,160
2017-05-20T07:13:29.295Z,160
2017-05-20T07:14:30.672Z,155
2017-05-20T07:15:32.043Z,150
2017-05-20T07:16:33.476Z,150
2017-05-20T07:17:34.790Z,150
2017-05-20T07:18:36.150Z,155
2017-05-20T07:19:38.410Z,160
2017-05-20T07:20:39.788Z,165
2017-05-20T07:21:41.160Z,165
2017-05-20T07:22:42.552Z,160
2017-05-20T07:23:43.917Z,165
2017-05-20T07:24:45.313Z,165
2017-05-20T07:25:46.649Z,170
2017-05-20T07:26:48.020Z,170
2017-05-20T07:27:49.385Z,170
2017-05-20T07:28:50.750Z,170
2017-05-20T07:29:52.120Z,170
2017-05-20T07:30:53.495Z,170
2017-05-20T07:31:54.863Z,170
2017-05-20T07:32:56.232Z,170
2017-05-20T07:33:57.660Z,175
2017-05-20T07:34:59.036Z,185
2017-05-20T07:36:00.474Z,190
2017-05-20T07:37:01.843Z,185
2017-05-20T07:38:03.214Z,190
2017-05-20T07:39:04.647Z,195
2017-05-20T07:40:06.042Z,205
2017-05-20T07:41:07.404Z,215
2017-05-20T07:42:08.775Z,220
2017-05-20T07:43:10.135Z,225
2017-05-20T07:44:11.507Z,230
2017-05-20T07:45:12.882Z,240
2017-05-20T07:46:14.246Z,235
2017-05-20T07:47:15.621Z,225
2017-05-20T07:48:16.991Z,225
2017-05-20T07:49:18.357Z,235
2017-05-20T07:50:19.729Z,240
2017-05-20T07:51:21.103Z,240
2017-05-20T07:52:22.470Z,245
2017-05-20T07:53:23.841Z,250
2017-05-20T07:54:25.208Z,250
2017-05-20T07:55:26.575Z,255
2017-05-20T07:56:27.959Z,255
2017-05-20T07:57:29.322Z,250
2017-05-20T07:58:30.693Z,240
2017-05-20T07:59:32.083Z,235
2017-05-20T08:00:33.453Z,240
2017-05-20T08:01:34.821Z,230
2017-05-20T08:02:36.194Z,225
2017-05-20T08:03:37.585Z,225
2017-05-20T08:04:39.079Z,210
2017-05-20T08:05:40.453Z,200
2017-05-20T08:06:41.845Z,200
2017-05-20T08:07:43.225Z,195
2017-05-20T08:08:44.613Z,190
2017-05-20T08:09:45.973Z,190
2017-05-20T08:10:47.345Z,185
2017-05-20T08:11:48.720Z,180
2017-05-20T08:12:50.088Z,175
2017-05-20T08:13:51.471Z,175
2017-05-20T08:14:52.858Z,180
2017-05-20T08:15:54.249Z,190
2017-05-20T08:16:55.657Z,190
2017-05-20T08:17:57.034Z,190
2017-05-20T08:18:58.404Z,185
2017-05-20T08:19:59.772Z,185
2017-05-20T08:21:01.184Z,185
2017-05-20T08:22:02.695Z,185
2017-05-20T08:23:04.065Z,185
2017-05-20T08:24:05.482Z,190
2017-05-20T08:25:06.789Z,195
2017-05-20T08:26:08.159Z,200
2017-05-20T08:27:09.520Z,205
2017-05-20T08:28:10.887Z,200
2017-05-20T08:29:12.258Z,200
2017-05-20T08:30:13.657Z,205
2017-05-20T08:31:15.037Z,215
2017-05-20T08:32:16.415Z,235
2017-05-20T08:33:17.778Z,250
2017-05-20T08:34:19.145Z,255
2017-05-20T08:35:20.515Z,250
2017-05-20T08:36:21.885Z,260
2017-05-20T08:37:23.255Z,270
2017-05-20T08:38:24.624Z,285
2017-05-20T08:39:25.993Z,300
2017-05-20T08:40:27.367Z,300
2017-05-20T08:41:28.737Z,305
2017-05-20T08:42:30.246Z,290
2017-05-20T08:43:31.624Z,285
2017-05-20T08:44:32.999Z,280
2017-05-20T08:45:34.364Z,270
2017-05-20T08:46:35.731Z,270
2017-05-20T08:47:37.103Z,265
2017-05-20T08:48:38.542Z,255
2017-05-20T08:49:40.570Z,250
2017-05-20T08:50:41.938Z,255
2017-05-20T08:51:43.305Z,260
2017-05-20T08:52:44.667Z,265
2017-05-20T08:53:46.044Z,270
2017-05-20T08:54:47.411Z,275
2017-05-20T08:55:48.784Z,270
2017-05-20T08:56:50.155Z,260
2017-05-20T08:57:51.557Z,260
2017-05-20T08:58:52.921Z,260
2017-05-20T08:59:54.403Z,260
2017-05-20T09:00:55.776Z,250
2017-05-20T09:01:57.143Z,245
2017-05-20T09:02:58.524Z,240
2017-05-20T09:04:00.038Z,240
2017-05-20T09:05:01.428Z,240
2017-05-20T09:06:02.873Z,245
2017-05-20T09:07:04.250Z,240
2017-05-20T09:08:05.631Z,240
2017-05-20T09:09:07.047Z,250
2017-05-20T09:10:08.934Z,260
2017-05-20T09:11:10.295Z,265
2017-05-20T09:12:11.666Z,265
2017-05-20T09:13:13.034Z,260
2017-05-20T09:14:14.398Z,255
2017-05-20T09:15:15.781Z,260
2017-05-20T09:16:17.149Z,265
2017-05-20T09:17:18.521Z,270
2017-05-20T09:18:19.907Z,260
2017-05-20T09:19:21.355Z,245
2017-05-20T09:20:22.665Z,235
2017-05-20T09:21:24.047Z,230
2017-05-20T09:22:25.413Z,230
2017-05-20T09:23:26.790Z,240
2017-05-20T09:24:28.169Z,240
2017-05-20T09:25:29.559Z,245
2017-05-20T09:26:30.942Z,260
2017-05-20T09:27:32.311Z,265
2017-05-20T09:28:33.688Z,270
2017-05-20T09:29:35.057Z,270
2017-05-20T09:30:36.419Z,280
2017-05-20T09:31:37.803Z,280
2017-05-20T09:32:39.178Z,290
2017-05-20T09:33:40.556Z,295
2017-05-20T09:34:41.922Z,285
2017-05-20T09:35:43.320Z,280
2017-05-20T09:36:44.689Z,275
2017-05-20T09:37:46.066Z,270
2017-05-20T09:38:47.431Z,270
2017-05-20T09:39:48.798Z,265
2017-05-20T09:40:50.184Z,260
2017-05-20T09:41:51.550Z,265
2017-05-20T09:42:52.936Z,280
2017-05-20T09:43:54.307Z,285
2017-05-20T09:44:56.457Z,275
2017-05-20T09:45:57.034Z,270
2017-05-20T09:46:58.409Z,275
2017-05-20T09:47:59.797Z,290
2017-05-20T09:49:01.264Z,300
2017-05-20T09:50:04.471Z,310
2017-05-20T09:51:06.008Z,305
2017-05-20T09:52:07.536Z,305
2017-05-20T09:53:08.958Z,305
2017-05-20T09:54:10.335Z,300
2017-05-20T09:55:11.713Z,295
2017-05-20T09:56:13.251Z,275
2017-05-20T09:57:14.635Z,275
2017-05-20T09:58:16.952Z,280
2017-05-20T09:59:18.362Z,285
2017-05-20T10:00:19.757Z,295
2017-05-20T10:01:21.215Z,315
2017-05-20T10:02:22.684Z,320
2017-05-20T10:03:24.079Z,310
2017-05-20T10:04:25.463Z,300
2017-05-20T10:05:26.888Z,295
2017-05-20T10:07:07.822Z,285
2017-05-20T10:08:09.205Z,290
2017-05-20T10:09:10.554Z,295
2017-05-20T10:10:11.949Z,285
2017-05-20T10:11:13.330Z,275
2017-05-20T10:12:14.742Z,270
2017-05-20T10:13:16.131Z,275
2017-05-20T10:14:17.511Z,270
2017-05-20T10:15:18.884Z,270
2017-05-20T10:16:20.268Z,275
2017-05-20T10:17:21.638Z,270
2017-05-20T10:18:23.059Z,260
2017-05-20T10:19:24.384Z,235
2017-05-20T10:20:25.751Z,230
2017-05-20T10:21:27.122Z,220
2017-05-20T10:22:28.487Z,215
2017-05-20T10:23:29.857Z,220
2017-05-20T10:24:31.224Z,215
2017-05-20T10:25:32.581Z,210
2017-05-20T10:26:33.961Z,210
2017-05-20T10:27:35.332Z,215
2017-05-20T10:28:36.698Z,215
2017-05-20T10:29:38.062Z,215
2017-05-20T10:30:40.177Z,215
2017-05-20T10:31:41.546Z,205
2017-05-20T10:32:42.920Z,205
2017-05-20T10:33:44.288Z,205
2017-05-20T10:34:45.800Z,215
2017-05-20T10:35:47.154Z,210
2017-05-20T10:36:48.526Z,200
2017-05-20T10:37:49.896Z,200
2017-05-20T10:38:51.262Z,205
2017-05-20T10:39:52.641Z,215
2017-05-20T10:40:54.002Z,210
2017-05-20T10:41:55.380Z,210
2017-05-20T10:42:56.767Z,220
2017-05-20T10:43:58.163Z,225
2017-05-20T10:44:59.527Z,225
2017-05-20T10:46:00.912Z,225
2017-05-20T10:47:02.892Z,220
2017-05-20T10:48:04.269Z,225
2017-05-20T10:49:05.636Z,225
2017-05-20T10:50:07.134Z,225
2017-05-20T10:51:08.497Z,225
2017-05-20T10:52:09.859Z,225
2017-05-20T10:53:11.232Z,225
2017-05-20T10:54:12.600Z,230
2017-05-20T10:55:13.974Z,220
2017-05-20T10:56:15.348Z,225
2017-05-20T10:57:16.729Z,220
2017-05-20T10:58:18.093Z,225
2017-05-20T10:59:19.526Z,225
2017-05-20T11:00:20.896Z,220
2017-05-20T11:01:22.276Z,230
2017-05-20T11:02:23.648Z,245
2017-05-20T11:03:25.885Z,255
2017-05-20T11:04:27.247Z,255
2017-05-20T11:05:28.617Z,250
2017-05-20T11:06:29.984Z,255
2017-05-20T11:07:31.361Z,270
2017-05-20T11:08:32.734Z,270
2017-05-20T11:09:34.101Z,260
2017-05-20T11:10:35.467Z,250
2017-05-20T11:11:36.845Z,250
2017-05-20T11:12:38.209Z,255
2017-05-20T11:13:39.679Z,265
2017-05-20T11:14:41.044Z,270
2017-05-20T11:15:42.412Z,285
2017-05-20T11:16:43.781Z,285
2017-05-20T11:17:45.901Z,275
2017-05-20T11:18:47.277Z,260
2017-05-20T11:19:48.637Z,275
2017-05-20T11:20:50.002Z,290
2017-05-20T11:21:51.362Z,300
2017-05-20T11:22:53.391Z,310
2017-05-20T11:23:54.752Z,295
2017-05-20T11:24:56.124Z,270
2017-05-20T11:25:57.494Z,265
2017-05-20T11:26:58.861Z,260
2017-05-20T11:28:00.221Z,260
2017-05-20T11:29:01.593Z,260
2017-05-20T11:30:03.023Z,260
2017-05-20T11:31:04.383Z,255
2017-05-20T11:32:06.723Z,245
2017-05-20T11:33:08.083Z,245
2017-05-20T11:34:09.446Z,245
2017-05-20T11:35:10.855Z,245
2017-05-20T11:36:12.220Z,245
2017-05-20T11:37:13.589Z,245
2017-05-20T11:38:14.954Z,250
2017-05-20T11:39:16.330Z,250
2017-05-20T11:40:17.700Z,255
2017-05-20T11:41:19.073Z,250
2017-05-20T11:42:20.442Z,250
2017-05-20T11:43:21.802Z,240
2017-05-20T11:44:23.243Z,235
2017-05-20T11:45:24.557Z,230
2017-05-20T11:46:25.929Z,225
2017-05-20T11:47:27.297Z,225
2017-05-20T11:48:28.663Z,225
2017-05-20T11:49:30.031Z,225
2017-05-20T11:50:31.398Z,230
2017-05-20T11:51:32.765Z,225
2017-05-20T11:52:34.129Z,235
2017-05-20T11:53:35.551Z,235
2017-05-20T11:54:36.921Z,240
2017-05-20T11:55:38.293Z,240
2017-05-20T11:56:39.674Z,245
2017-05-20T11:57:41.039Z,245
2017-05-20T11:58:42.406Z,250
2017-05-20T11:59:43.774Z,255
2017-05-20T12:00:45.147Z,260
2017-05-20T12:01:46.519Z,255
2017-05-20T12:02:47.879Z,255
2017-05-20T12:03:49.251Z,245
2017-05-20T12:04:50.623Z,235
2017-05-20T12:05:51.992Z,225
2017-05-20T12:06:53.367Z,220
2017-05-20T12:07:54.741Z,215
2017-05-20T12:08:56.117Z,210
2017-05-20T12:09:57.483Z,205
2017-05-20T12:10:58.851Z,200
2017-05-20T12:12:00.254Z,200
2017-05-20T12:13:01.610Z,200
2017-05-20T12:14:02.982Z,195
2017-05-20T12:15:04.348Z,195
2017-05-20T12:16:05.718Z,195
2017-05-20T12:17:07.083Z,190
2017-05-20T12:18:08.448Z,185
2017-05-20T12:19:09.818Z,180
2017-05-20T12:20:11.188Z,170
2017-05-20T12:21:12.556Z,165
2017-05-20T12:22:14.000Z,160
2017-05-20T12:23:15.367Z,155
2017-05-20T12:24:17.613Z,155
2017-05-20T12:25:18.977Z,155
2017-05-20T12:26:20.346Z,155
2017-05-20T12:27:21.713Z,155
2017-05-20T12:28:23.087Z,150
2017-05-20T12:29:24.456Z,150
2017-05-20T12:30:25.830Z,150
2017-05-20T12:31:27.195Z,155
2017-05-20T12:32:28.634Z,155
2017-05-20T12:33:29.997Z,165
2017-05-20T12:34:31.364Z,170
2017-05-20T12:35:32.834Z,175
2017-05-20T12:36:34.202Z,170
2017-05-20T12:37:35.572Z,170
2017-05-20T12:38:36.935Z,170
2017-05-20T12:39:39.268Z,170
2017-05-20T12:40:40.634Z,170
2017-05-20T12:41:42.000Z,170
2017-05-20T12:42:43.366Z,165
2017-05-20T12:43:44.730Z,165
2017-05-20T12:44:46.104Z,160
2017-05-20T12:45:47.470Z,155
2017-05-20T12:46:48.842Z,155
2017-05-20T12:47:50.231Z,150
2017-05-20T12:48:51.605Z,150
2017-05-20T12:49:52.968Z,145
2017-05-20T12:50:54.330Z,140
2017-05-20T12:51:55.700Z,135
2017-05-20T12:52:57.065Z,135
2017-05-20T12:53:58.447Z,135
2017-05-20T12:54:59.819Z,130
2017-05-20T12:56:01.189Z,125
2017-05-20T12:57:02.560Z,120
2017-05-20T12:58:03.935Z,120
2017-05-20T12:59:05.313Z,115
2017-05-20T13:00:06.675Z,115
2017-05-20T13:01:08.046Z,120
2017-05-20T13:02:09.404Z,120
2017-05-20T13:03:10.776Z,120
2017-05-20T13:04:12.152Z,120
2017-05-20T13:05:13.515Z,120
2017-05-20T13:06:14.891Z,125
2017-05-20T13:07:16.257Z,125
2017-05-20T13:08:17.617Z,120
2017-05-20T13:09:19.005Z,120
2017-05-20T13:10:20.367Z,125
2017-05-20T13:11:21.738Z,125
2017-05-20T13:12:23.109Z,130
2017-05-20T13:13:24.479Z,125
2017-05-20T13:14:25.845Z,125
2017-05-20T13:15:27.213Z,125
2017-05-20T13:16:28.577Z,125
2017-05-20T13:17:29.990Z,125
2017-05-20T13:18:31.381Z,125
2017-05-20T13:19:32.753Z,130
2017-05-20T13:20:34.705Z,135
2017-05-20T13:21:36.074Z,140
2017-05-20T13:22:37.439Z,135
2017-05-20T13:23:38.819Z,135
2017-05-20T13:24:40.175Z,130
2017-05-20T13:25:41.546Z,130
2017-05-20T13:26:42.935Z,130
2017-05-20T13:27:44.321Z,130
2017-05-20T13:28:45.699Z,125
2017-05-20T13:29:47.062Z,125
2017-05-20T13:30:48.442Z,125
2017-05-20T13:31:49.809Z,120
2017-05-20T13:32:51.182Z,120
2017-05-20T13:33:52.551Z,125
2017-05-20T13:34:53.930Z,125
2017-05-20T13:35:55.331Z,125
2017-05-20T13:36:57.234Z,125
2017-05-20T13:37:58.627Z,125
2017-05-20T13:38:59.999Z,120
2017-05-20T13:40:01.362Z,120
2017-05-20T13:41:02.763Z,125
2017-05-20T13:42:04.130Z,130
2017-05-20T13:43:05.498Z,130
2017-05-20T13:44:06.872Z,135
2017-05-20T13:45:08.235Z,135
2017-05-20T13:46:09.601Z,135
2017-05-20T13:47:10.973Z,140
2017-05-20T13:48:12.349Z,145
2017-05-20T13:49:13.737Z,150
2017-05-20T13:50:15.124Z,150
2017-05-20T13:51:16.501Z,150
2017-05-20T13:52:17.865Z,150
2017-05-20T13:53:19.238Z,155
2017-05-20T13:54:20.599Z,150
2017-05-20T13:55:21.963Z,150
2017-05-20T13:56:23.340Z,155
2017-05-20T13:57:24.714Z,155
2017-05-20T13:58:26.079Z,155
2017-05-20T13:59:27.442Z,155
2017-05-20T14:00:28.812Z,155
2017-05-20T14:01:30.179Z,155
2017-05-20T14:02:31.560Z,160
2017-05-20T14:03:32.932Z,165
2017-05-20T14:04:34.308Z,170
2017-05-20T14:05:35.676Z,170
2017-05-20T14:06:37.041Z,170
2017-05-20T14:07:38.546Z,170
2017-05-20T14:08:39.930Z,170
2017-05-20T14:09:41.301Z,160
2017-05-20T14:10:42.769Z,160
2017-05-20T14:11:44.839Z,160
2017-05-20T14:12:46.819Z,160
2017-05-20T14:13:48.377Z,170
2017-05-20T14:14:50.674Z,175
2017-05-20T14:15:52.085Z,170
2017-05-20T14:16:53.493Z,170
2017-05-20T14:17:55.131Z,180
2017-05-20T14:18:56.990Z,180
2017-05-20T14:19:58.949Z,185
2017-05-20T14:21:00.357Z,195
2017-05-20T14:22:01.901Z,200